createdAt,value
2023-04-26T00:01:57.967Z,59.46
2023-04-26T00:06:59.465Z,59.67
2023-04-26T00:12:01.051Z,59.12
2023-04-26T00:17:02.583Z,59.15
2023-04-26T00:22:04.165Z,57.99
2023-04-26T00:27:05.588Z,58.89
2023-04-26T00:32:07.172Z,58.76
2023-04-26T00:37:08.627Z,58.50
2023-04-26T00:42:10.072Z,58.05
2023-04-26T00:47:11.528Z,58.85
2023-04-26T00:52:13.504Z,58.95
2023-04-26T00:57:15.552Z,58.10
2023-04-26T01:02:17.265Z,59.06
2023-04-26T01:07:18.789Z,58.83
2023-04-26T01:12:21.406Z,58.78
2023-04-26T01:17:23.546Z,58.57
2023-04-26T01:22:25.058Z,58.29
2023-04-26T01:27:26.565Z,58.71
2023-04-26T01:32:28.030Z,58.22
2023-04-26T01:37:31.842Z,58.46
2023-04-26T01:42:34.393Z,58.41
2023-04-26T01:47:36.034Z,57.72
2023-04-26T01:52:37.580Z,58.60
2023-04-26T01:57:39.098Z,58.09
2023-04-26T02:02:41.115Z,58.91
2023-04-26T02:07:42.654Z,58.26
2023-04-26T02:12:44.133Z,58.36
2023-04-26T02:17:45.574Z,58.53
2023-04-26T02:22:47.095Z,58.54
2023-04-26T02:27:50.445Z,58.52
2023-04-26T02:32:54.481Z,58.91
2023-04-26T02:37:55.977Z,59.10
2023-04-26T02:42:57.768Z,59.43
2023-04-26T02:47:59.356Z,60.27
2023-04-26T02:53:00.905Z,60.03
2023-04-26T02:58:03.885Z,60.44
2023-04-26T03:03:05.537Z,60.49
2023-04-26T03:08:07.366Z,59.82
2023-04-26T03:13:08.884Z,59.08
2023-04-26T03:18:10.501Z,58.80
2023-04-26T03:23:12.828Z,59.26
2023-04-26T03:28:14.335Z,59.78
2023-04-26T03:33:16.891Z,59.53
2023-04-26T03:38:18.430Z,60.26
2023-04-26T03:43:20.301Z,60.13
2023-04-26T03:48:21.781Z,60.64
2023-04-26T03:53:23.209Z,61.22
2023-04-26T03:58:25.901Z,61.36
2023-04-26T04:03:27.882Z,62.02
2023-04-26T04:08:29.972Z,62.31
2023-04-26T04:13:31.532Z,61.91
2023-04-26T04:18:33.170Z,61.59
2023-04-26T04:23:34.723Z,61.64
2023-04-26T04:28:41.667Z,61.30
2023-04-26T04:33:43.453Z,62.01
2023-04-26T04:38:45.971Z,61.91
2023-04-26T04:43:50.663Z,61.56
2023-04-26T04:48:52.430Z,61.57
2023-04-26T04:53:57.577Z,62.07
2023-04-26T04:58:59.311Z,62.54
2023-04-26T05:04:01.238Z,61.96
2023-04-26T05:09:03.463Z,62.38
2023-04-26T05:14:04.982Z,62.66
2023-04-26T05:19:09.219Z,61.40
2023-04-26T05:24:11.670Z,61.12
2023-04-26T05:29:13.342Z,60.87
2023-04-26T05:34:26.784Z,60.62
2023-04-26T05:39:31.991Z,61.23
2023-04-26T05:44:33.811Z,59.85
2023-04-26T05:49:36.850Z,59.69
2023-04-26T05:54:38.929Z,59.74
2023-04-26T05:59:40.846Z,59.34
2023-04-26T06:04:42.606Z,59.39
2023-04-26T06:09:50.929Z,59.80
2023-04-26T06:14:52.579Z,60.63
2023-04-26T06:19:56.429Z,59.27
2023-04-26T06:24:57.945Z,60.78
2023-04-26T06:30:01.751Z,59.52
2023-04-26T06:35:06.046Z,57.78
2023-04-26T06:40:08.651Z,58.32
2023-04-26T06:45:10.912Z,59.34
2023-04-26T06:50:12.707Z,58.11
2023-04-26T06:55:14.165Z,57.89
2023-04-26T07:00:16.022Z,58.27
2023-04-26T07:05:17.689Z,59.39
2023-04-26T07:10:19.522Z,58.11
2023-04-26T07:15:21.120Z,56.58
2023-04-26T07:20:22.843Z,56.14
2023-04-26T07:25:24.525Z,54.95
2023-04-26T07:30:26.156Z,54.17
2023-04-26T07:35:27.739Z,53.83
2023-04-26T07:40:29.226Z,53.65
2023-04-26T07:45:32.724Z,52.24
2023-04-26T07:50:34.264Z,51.88
2023-04-26T07:55:35.730Z,53.41
2023-04-26T08:00:37.153Z,53.52
2023-04-26T08:05:38.834Z,51.71
2023-04-26T08:10:41.029Z,50.84
2023-04-26T08:15:42.584Z,50.43
2023-04-26T08:20:44.045Z,51.01
2023-04-26T08:25:47.713Z,50.07
2023-04-26T08:30:49.421Z,49.13
2023-04-26T08:35:50.967Z,48.41
2023-04-26T08:40:55.760Z,47.97
2023-04-26T08:45:59.439Z,46.84
2023-04-26T08:51:01.767Z,47.84
2023-04-26T08:56:04.768Z,46.71
2023-04-26T09:01:06.868Z,44.71
2023-04-26T09:06:08.773Z,44.45
2023-04-26T09:11:10.285Z,45.02
2023-04-26T09:16:11.818Z,43.09
2023-04-26T09:21:13.697Z,47.27
2023-04-26T09:26:19.367Z,48.52
2023-04-26T09:31:39.591Z,48.12
2023-04-26T09:36:47.832Z,48.28
2023-04-26T09:41:49.288Z,46.07
2023-04-26T09:47:07.870Z,46.09
2023-04-26T09:52:09.407Z,46.97
2023-04-26T09:57:12.684Z,45.56
2023-04-26T10:02:21.141Z,42.86
2023-04-26T10:07:25.556Z,41.14
2023-04-26T10:12:27.294Z,44.20
2023-04-26T10:17:28.904Z,39.45
2023-04-26T10:22:34.325Z,44.78
2023-04-26T10:27:44.706Z,44.64
2023-04-26T10:32:51.901Z,43.53
2023-04-26T10:37:59.343Z,43.73
2023-04-26T10:43:12.966Z,43.13
2023-04-26T10:48:43.680Z,39.75
2023-04-26T10:53:47.943Z,41.01
2023-04-26T10:59:19.120Z,42.47
2023-04-26T11:04:51.761Z,42.48
2023-04-26T11:09:53.203Z,41.69
2023-04-26T11:14:54.637Z,41.80
2023-04-26T11:19:56.147Z,39.99
2023-04-26T11:25:00.530Z,39.04
2023-04-26T11:30:05.849Z,37.78
2023-04-26T11:35:07.649Z,37.33
2023-04-26T11:40:12.074Z,34.13
2023-04-26T11:45:15.968Z,36.39
2023-04-26T11:50:18.043Z,36.20
2023-04-26T11:55:24.306Z,35.89
2023-04-26T12:00:26.665Z,33.94
2023-04-26T12:05:29.730Z,34.04
2023-04-26T12:10:36.163Z,36.45
2023-04-26T12:15:38.972Z,33.46
2023-04-26T12:20:42.572Z,35.93
2023-04-26T12:25:54.941Z,34.59
2023-04-26T12:30:56.612Z,36.87
2023-04-26T12:35:58.404Z,37.31
2023-04-26T12:40:59.869Z,35.74
2023-04-26T12:46:01.509Z,36.43
2023-04-26T12:51:03.767Z,35.32
2023-04-26T12:56:05.608Z,34.93
2023-04-26T13:01:07.090Z,36.32
2023-04-26T13:06:09.047Z,35.42
2023-04-26T13:11:10.483Z,35.89
2023-04-26T13:16:12.991Z,34.38
2023-04-26T13:21:14.900Z,35.19
2023-04-26T13:26:18.709Z,34.81
2023-04-26T13:31:20.277Z,34.50
2023-04-26T13:36:21.845Z,35.82
2023-04-26T13:41:23.519Z,33.57
2023-04-26T13:46:25.126Z,35.23
2023-04-26T13:51:27.112Z,34.54
2023-04-26T13:56:28.637Z,35.28
2023-04-26T14:01:30.237Z,36.05
2023-04-26T14:06:31.849Z,35.67
2023-04-26T14:11:33.368Z,35.40
2023-04-26T14:16:35.018Z,33.40
2023-04-26T14:21:36.598Z,34.71
2023-04-26T14:26:38.102Z,33.39
2023-04-26T14:31:39.655Z,34.25
2023-04-26T14:36:41.217Z,35.25
2023-04-26T14:41:42.709Z,35.40
2023-04-26T14:46:44.332Z,35.68
2023-04-26T14:51:46.193Z,36.96
2023-04-26T14:56:47.985Z,35.51
2023-04-26T15:01:50.155Z,34.72
2023-04-26T15:06:51.687Z,35.08
2023-04-26T15:11:53.125Z,34.34
2023-04-26T15:16:54.615Z,35.27
2023-04-26T15:21:56.158Z,35.90
2023-04-26T15:26:57.654Z,37.00
2023-04-26T15:31:59.306Z,37.49
2023-04-26T15:37:00.816Z,37.50
2023-04-26T15:42:02.342Z,37.60
2023-04-26T15:47:03.949Z,38.63
2023-04-26T15:52:05.518Z,38.47
2023-04-26T15:57:06.996Z,35.46
2023-04-26T16:02:08.497Z,37.19
2023-04-26T16:07:09.950Z,38.10
2023-04-26T16:12:11.590Z,37.64
2023-04-26T16:17:13.313Z,39.49
2023-04-26T16:22:14.845Z,38.26
2023-04-26T16:27:16.421Z,40.41
2023-04-26T16:32:17.943Z,38.12
2023-04-26T16:37:19.409Z,37.66
2023-04-26T16:42:20.924Z,36.60
2023-04-26T16:47:22.476Z,37.88
2023-04-26T16:52:24.180Z,39.24
2023-04-26T16:57:25.627Z,41.99
2023-04-26T17:02:27.234Z,41.19
2023-04-26T17:07:28.778Z,41.79
2023-04-26T17:12:30.258Z,39.80
2023-04-26T17:17:31.778Z,39.54
2023-04-26T17:22:33.292Z,40.56
2023-04-26T17:27:34.736Z,40.29
2023-04-26T17:32:36.252Z,39.28
2023-04-26T17:37:37.719Z,38.91
2023-04-26T17:42:39.212Z,39.33
2023-04-26T17:47:40.924Z,41.00
2023-04-26T17:52:42.367Z,43.25
2023-04-26T17:57:43.914Z,42.85
2023-04-26T18:02:45.622Z,41.61
2023-04-26T18:07:48.394Z,43.10
2023-04-26T18:12:49.915Z,43.14
2023-04-26T18:17:51.440Z,44.81
2023-04-26T18:22:52.959Z,44.12
2023-04-26T18:27:54.415Z,46.03
2023-04-26T18:32:55.930Z,45.79
2023-04-26T18:37:57.527Z,45.88
2023-04-26T18:42:58.970Z,45.48
2023-04-26T18:48:00.481Z,44.95
2023-04-26T18:53:02.008Z,45.45
2023-04-26T18:58:03.528Z,45.40
2023-04-26T19:03:05.148Z,45.14
2023-04-26T19:08:06.763Z,45.40
2023-04-26T19:13:08.365Z,45.31
2023-04-26T19:18:09.957Z,45.63
2023-04-26T19:23:11.528Z,45.57
2023-04-26T19:28:13.307Z,46.53
2023-04-26T19:33:14.745Z,47.44
2023-04-26T19:38:16.199Z,47.76
2023-04-26T19:43:17.942Z,48.59
2023-04-26T19:48:19.443Z,48.44
2023-04-26T19:53:20.903Z,48.79
2023-04-26T19:58:22.393Z,49.36
2023-04-26T20:03:24.568Z,48.94
2023-04-26T20:08:26.247Z,47.55
2023-04-26T20:13:27.716Z,47.94
2023-04-26T20:18:29.254Z,48.96
2023-04-26T20:23:30.955Z,49.05
2023-04-26T20:28:32.438Z,48.42
2023-04-26T20:33:33.874Z,48.87
2023-04-26T20:38:35.327Z,49.34
2023-04-26T20:43:36.792Z,48.21
2023-04-26T20:48:38.282Z,48.81
2023-04-26T20:53:39.767Z,49.03
2023-04-26T20:58:41.352Z,49.29
2023-04-26T21:03:42.957Z,49.47
2023-04-26T21:08:44.580Z,50.01
2023-04-26T21:13:46.099Z,49.26
2023-04-26T21:18:47.571Z,49.10
2023-04-26T21:23:49.005Z,49.42
2023-04-26T21:28:50.654Z,49.57
2023-04-26T21:33:52.527Z,49.12
2023-04-26T21:38:54.020Z,49.13
2023-04-26T21:43:55.547Z,48.95
2023-04-26T21:48:56.978Z,48.52
2023-04-26T21:53:58.502Z,49.66
2023-04-26T21:58:59.977Z,49.94
2023-04-26T22:04:01.529Z,50.33
2023-04-26T22:09:03.129Z,49.73
2023-04-26T22:14:04.622Z,50.09
2023-04-26T22:19:06.127Z,50.12
2023-04-26T22:24:08.199Z,51.58
2023-04-26T22:29:09.901Z,52.50
2023-04-26T22:34:11.501Z,52.15
2023-04-26T22:39:14.500Z,53.25
2023-04-26T22:44:16.007Z,52.08
2023-04-26T22:49:17.544Z,53.18
2023-04-26T22:54:19.035Z,52.72
2023-04-26T22:59:20.526Z,52.41
2023-04-26T23:04:21.998Z,52.11
2023-04-26T23:09:23.500Z,52.07
2023-04-26T23:14:25.707Z,53.52
2023-04-26T23:19:27.158Z,54.91
2023-04-26T23:24:28.726Z,54.75
2023-04-26T23:29:30.242Z,54.76
2023-04-26T23:34:31.816Z,56.23
2023-04-26T23:39:33.269Z,57.12
2023-04-26T23:44:34.834Z,58.18
2023-04-26T23:49:36.348Z,58.36
2023-04-26T23:54:37.857Z,57.97
2023-04-26T23:59:39.453Z,57.10
